Time;durP1;ratioP1;P1;durP2;ratioP2;P2;SDS_P1;SDS_P2;PMS_P1;PMS_P2;Temp;Humidity;BMP_temperature;BMP_pressure;BME280_temperature;BME280_humidity;BME280_pressure;Samples;Min_cycle;Max_cycle;Signal;HPM_P1;HPM_P2
2021/04/21 00:01:04;;;;;;;75.77;55.10;;;12.60;1.00;;;;;;5053959;28;20291;-81
2021/04/21 00:03:31;;;;;;;74.50;54.03;;;12.60;2.00;;;;;;5055488;28;20177;-80
2021/04/21 00:05:58;;;;;;;70.40;53.00;;;12.60;1.40;;;;;;5053926;28;20534;-83
2021/04/21 00:08:26;;;;;;;71.47;54.13;;;12.70;1.00;;;;;;5055265;28;20219;-83
2021/04/21 00:10:53;;;;;;;73.10;52.17;;;12.60;3.10;;;;;;5054145;28;20264;-80
2021/04/21 00:13:22;;;;;;;72.50;55.23;;;12.50;4.00;;;;;;5055255;28;20934;-81
2021/04/21 00:15:48;;;;;;;74.90;52.23;;;12.40;7.30;;;;;;5053911;28;20199;-82
2021/04/21 00:18:15;;;;;;;75.03;54.80;;;12.30;12.30;;;;;;5055014;28;20169;-82
2021/04/21 00:20:42;;;;;;;71.60;53.77;;;12.40;15.10;;;;;;5054808;28;20188;-82
2021/04/21 00:23:11;;;;;;;69.33;51.77;;;12.30;13.60;;;;;;5055906;28;20179;-82
2021/04/21 00:25:38;;;;;;;73.10;52.17;;;12.30;12.80;;;;;;5063805;28;20259;-82
2021/04/21 00:28:07;;;;;;;75.03;55.10;;;12.20;17.10;;;;;;5054685;28;20706;-81
2021/04/21 00:30:34;;;;;;;75.37;53.47;;;12.10;18.80;;;;;;5054782;28;20204;-82
2021/04/21 00:33:01;;;;;;;74.63;53.13;;;12.10;23.20;;;;;;5053563;28;20165;-83
2021/04/21 00:35:33;;;;;;;70.67;49.77;;;12.00;23.90;;;;;;5053602;28;20173;-82
2021/04/21 00:38:03;;;;;;;77.67;54.07;;;11.90;29.80;;;;;;5054779;28;20177;-82
2021/04/21 00:40:45;;;;;;;72.60;53.80;;;11.90;25.30;;;;;;5053651;28;20173;-83
2021/04/21 00:43:25;;;;;;;76.10;53.57;;;12.00;22.30;;;;;;5054700;28;20248;-81
2021/04/21 00:46:01;;;;;;;75.33;54.47;;;11.90;24.90;;;;;;5054933;28;20165;-80
2021/04/21 00:48:45;;;;;;;70.07;51.07;;;12.00;24.90;;;;;;5067186;28;20233;-80
2021/04/21 00:51:15;;;;;;;76.63;52.40;;;11.90;22.80;;;;;;5073690;28;20192;-81
2021/04/21 00:53:47;;;;;;;72.77;51.77;;;12.00;20.20;;;;;;5073380;28;20180;-82
2021/04/21 00:56:36;;;;;;;77.93;53.53;;;11.90;17.80;;;;;;5056676;28;20177;-81
2021/04/21 00:59:10;;;;;;;73.77;52.53;;;11.90;19.60;;;;;;5053229;28;20184;-80
2021/04/21 01:01:37;;;;;;;72.50;51.47;;;12.00;19.00;;;;;;5054357;28;20173;-81
2021/04/21 01:04:05;;;;;;;77.73;54.50;;;11.90;18.70;;;;;;5054213;28;20610;-80
2021/04/21 01:06:36;;;;;;;76.07;54.43;;;11.80;23.80;;;;;;5053219;28;20177;-79
2021/04/21 01:09:06;;;;;;;74.97;52.63;;;11.80;25.30;;;;;;5054242;28;20259;-79
2021/04/21 01:11:37;;;;;;;76.00;53.33;;;11.80;23.90;;;;;;5053026;28;20605;-80
2021/04/21 01:14:10;;;;;;;70.83;51.57;;;11.80;23.80;;;;;;5052842;28;20529;-80
2021/04/21 01:16:38;;;;;;;71.63;50.13;;;11.70;26.20;;;;;;5054110;28;20169;-82
2021/04/21 01:19:42;;;;;;;80.97;53.37;;;11.60;27.90;;;;;;5052721;28;20645;-81
2021/04/21 01:22:14;;;;;;;71.83;51.83;;;11.60;29.90;;;;;;5051568;28;20176;-84
2021/04/21 01:24:59;;;;;;;67.67;49.00;;;11.70;27.70;;;;;;5064079;28;20165;-82
2021/04/21 01:27:48;;;;;;;69.40;50.17;;;11.60;26.40;;;;;;5053876;28;20238;-83
2021/04/21 01:30:21;;;;;;;72.60;50.07;;;11.60;26.60;;;;;;5052463;28;20263;-82
2021/04/21 01:32:50;;;;;;;71.77;49.73;;;11.60;27.50;;;;;;5053739;28;20176;-80
2021/04/21 01:35:20;;;;;;;71.53;50.83;;;11.60;25.20;;;;;;5053670;28;20176;-81
2021/04/21 01:37:48;;;;;;;68.43;48.53;;;11.60;25.20;;;;;;5053877;28;20170;-81
2021/04/21 01:40:21;;;;;;;68.20;49.53;;;11.50;24.30;;;;;;5052363;28;20243;-80
2021/04/21 01:42:54;;;;;;;73.63;50.63;;;11.50;26.10;;;;;;5052642;28;20173;-81
2021/04/21 01:45:26;;;;;;;70.97;49.80;;;11.50;28.00;;;;;;5052069;28;20169;-81
2021/04/21 01:47:57;;;;;;;70.20;48.97;;;11.60;26.70;;;;;;5061484;28;20259;-82
2021/04/21 01:50:22;;;;;;;69.73;49.63;;;11.50;26.00;;;;;;5073359;28;20211;-80
2021/04/21 01:53:26;;;;;;;66.30;48.30;;;11.50;26.70;;;;;;5072157;28;20242;-83
2021/04/21 01:56:07;;;;;;;62.70;46.33;;;11.40;23.80;;;;;;5059833;28;20177;-80
2021/04/21 01:59:03;;;;;;;70.13;48.80;;;11.40;26.80;;;;;;5051979;28;20516;-81
2021/04/21 02:02:11;;;;;;;74.73;49.67;;;11.40;26.40;;;;;;5053085;28;20545;-80
2021/04/21 02:05:06;;;;;;;64.57;47.03;;;11.40;24.10;;;;;;5052671;28;20668;-83
2021/04/21 02:07:46;;;;;;;66.27;45.93;;;11.50;23.00;;;;;;5047085;28;20228;-82
2021/04/21 02:10:34;;;;;;;65.57;46.27;;;11.40;25.10;;;;;;5053692;28;20192;-82
2021/04/21 02:13:12;;;;;;;63.10;46.33;;;11.40;25.50;;;;;;5053504;28;20166;-81
2021/04/21 02:16:02;;;;;;;66.23;46.77;;;11.40;26.10;;;;;;5053298;28;20165;-82
2021/04/21 02:19:01;;;;;;;67.60;47.70;;;11.40;27.40;;;;;;5050691;28;20193;-82
2021/04/21 02:21:37;;;;;;;66.10;46.37;;;11.30;27.70;;;;;;5053561;28;20165;-81
2021/04/21 02:24:09;;;;;;;62.83;45.50;;;11.30;30.80;;;;;;5062339;28;20178;-81
2021/04/21 02:26:42;;;;;;;63.13;45.13;;;11.20;27.90;;;;;;5072367;28;20200;-80
2021/04/21 02:29:24;;;;;;;66.47;48.27;;;11.30;29.40;;;;;;5073320;28;20294;-81
2021/04/21 02:32:12;;;;;;;66.80;47.37;;;11.30;29.60;;;;;;5073077;28;20172;-80
2021/04/21 02:34:51;;;;;;;63.40;45.67;;;11.30;29.70;;;;;;5073068;28;20235;-81
2021/04/21 02:37:24;;;;;;;65.80;46.80;;;11.30;27.30;;;;;;5071950;28;20171;-80
2021/04/21 02:40:10;;;;;;;66.10;47.03;;;11.30;26.90;;;;;;5073210;28;20172;-82
2021/04/21 02:43:01;;;;;;;63.67;45.73;;;11.40;26.00;;;;;;5071895;28;20172;-83
2021/04/21 02:45:56;;;;;;;61.33;46.40;;;11.40;23.20;;;;;;5071579;28;20179;-81
2021/04/21 02:48:51;;;;;;;62.70;44.57;;;11.40;22.00;;;;;;5068066;28;20280;-82
2021/04/21 02:51:53;;;;;;;63.80;45.23;;;11.30;24.40;;;;;;5053013;28;20550;-82
2021/04/21 02:54:39;;;;;;;62.17;45.77;;;11.30;28.20;;;;;;5052802;28;20651;-82
2021/04/21 02:57:20;;;;;;;66.50;47.07;;;11.30;28.90;;;;;;5071708;28;20167;-81
2021/04/21 03:00:16;;;;;;;65.63;46.80;;;11.30;27.60;;;;;;5071689;28;20211;-83
2021/04/21 03:02:54;;;;;;;64.63;47.43;;;11.20;30.50;;;;;;5071914;28;20180;-83
2021/04/21 03:05:25;;;;;;;64.40;47.23;;;11.20;31.40;;;;;;5072809;28;20255;-82
2021/04/21 03:08:15;;;;;;;63.13;46.33;;;11.30;28.40;;;;;;5071749;28;20176;-81
2021/04/21 03:10:54;;;;;;;61.97;45.70;;;11.20;27.60;;;;;;5072619;28;20211;-82
2021/04/21 03:13:28;;;;;;;67.37;47.80;;;11.20;29.80;;;;;;5070777;28;20172;-81
2021/04/21 03:15:58;;;;;;;68.20;45.80;;;11.20;29.40;;;;;;5071399;28;20176;-83
2021/04/21 03:18:28;;;;;;;63.57;47.50;;;11.20;29.70;;;;;;5071684;28;20648;-82
2021/04/21 03:20:59;;;;;;;63.97;46.27;;;11.20;30.80;;;;;;5074829;28;20175;-80
2021/04/21 03:23:27;;;;;;;69.67;48.20;;;11.10;32.70;;;;;;5075433;28;20290;-79
2021/04/21 03:25:56;;;;;;;65.40;46.93;;;11.10;33.60;;;;;;5076661;28;20164;-81
2021/04/21 03:28:23;;;;;;;66.10;48.50;;;11.10;31.90;;;;;;5076444;28;20592;-81
2021/04/21 03:30:53;;;;;;;67.03;48.10;;;11.20;31.80;;;;;;5076185;28;20175;-80
2021/04/21 03:33:32;;;;;;;65.10;46.00;;;11.10;31.90;;;;;;5076933;28;20659;-81
2021/04/21 03:35:59;;;;;;;62.27;45.97;;;11.10;34.30;;;;;;5075146;28;20233;-81
2021/04/21 03:38:25;;;;;;;62.47;45.43;;;11.20;31.80;;;;;;5075336;28;20173;-81
2021/04/21 03:40:51;;;;;;;65.87;47.33;;;11.10;32.60;;;;;;5076441;28;20168;-80
2021/04/21 03:43:18;;;;;;;67.00;45.63;;;11.10;33.70;;;;;;5075035;28;20179;-83
2021/04/21 03:45:47;;;;;;;65.07;45.40;;;11.10;32.40;;;;;;5076283;28;20268;-81
2021/04/21 03:48:14;;;;;;;58.03;44.77;;;11.10;32.80;;;;;;5063912;28;20531;-82
2021/04/21 03:50:40;;;;;;;59.13;42.23;;;11.10;28.50;;;;;;5054776;28;20590;-82
2021/04/21 03:53:08;;;;;;;58.70;43.47;;;11.10;28.90;;;;;;5056449;28;20232;-81
2021/04/21 03:55:35;;;;;;;58.47;42.57;;;11.00;29.30;;;;;;5067917;28;20176;-79
2021/04/21 03:58:13;;;;;;;61.53;44.00;;;11.00;27.10;;;;;;5076141;28;20248;-81
2021/04/21 04:00:41;;;;;;;57.83;40.90;;;11.00;26.40;;;;;;5076206;28;20188;-82
2021/04/21 04:03:14;;;;;;;53.10;39.07;;;11.00;25.10;;;;;;5076021;28;20632;-80
2021/04/21 04:05:43;;;;;;;58.77;42.27;;;10.90;27.00;;;;;;5075047;28;20176;-80
2021/04/21 04:08:12;;;;;;;57.20;41.57;;;10.80;32.30;;;;;;5073833;28;20306;-81
2021/04/21 04:10:45;;;;;;;57.20;40.73;;;10.80;32.40;;;;;;5073887;28;20212;-80
2021/04/21 04:13:13;;;;;;;57.63;42.17;;;10.80;35.50;;;;;;5073987;28;20177;-80
2021/04/21 04:15:40;;;;;;;58.00;39.90;;;10.80;33.50;;;;;;5075591;28;20255;-80
2021/04/21 04:18:09;;;;;;;58.10;40.93;;;10.80;26.60;;;;;;5074378;28;20228;-79
2021/04/21 04:20:37;;;;;;;60.77;42.33;;;10.80;29.70;;;;;;5075443;28;20638;-80
2021/04/21 04:23:06;;;;;;;59.80;43.80;;;10.80;31.10;;;;;;5074153;28;20172;-79
2021/04/21 04:25:37;;;;;;;60.07;41.67;;;10.70;34.50;;;;;;5074228;28;20176;-80
2021/04/21 04:28:03;;;;;;;58.40;40.60;;;10.70;31.40;;;;;;5073382;28;20191;-82
2021/04/21 04:30:31;;;;;;;63.23;43.50;;;10.60;36.00;;;;;;5075649;28;20212;-79
2021/04/21 04:32:59;;;;;;;58.63;43.20;;;10.60;36.10;;;;;;5075774;28;20251;-82
2021/04/21 04:35:25;;;;;;;58.53;43.93;;;10.60;36.40;;;;;;5076158;28;20172;-81
2021/04/21 04:37:58;;;;;;;64.33;43.70;;;10.60;38.50;;;;;;5074011;28;20175;-81
2021/04/21 04:40:24;;;;;;;55.60;40.17;;;10.60;40.40;;;;;;5073670;28;20168;-81
2021/04/21 04:42:50;;;;;;;54.03;38.80;;;10.60;34.30;;;;;;5074263;28;20169;-80
2021/04/21 04:45:16;;;;;;;55.20;39.00;;;10.60;27.30;;;;;;5073878;28;20179;-80
2021/04/21 04:47:43;;;;;;;55.33;39.20;;;10.60;25.40;;;;;;5068305;28;20540;-83
2021/04/21 04:50:14;;;;;;;50.47;37.47;;;10.70;19.90;;;;;;5053762;28;20208;-80
2021/04/21 04:52:46;;;;;;;54.33;36.97;;;10.70;18.70;;;;;;5053512;28;20169;-81
2021/04/21 04:55:28;;;;;;;53.13;35.43;;;10.70;17.10;;;;;;5062059;28;20317;-80
2021/04/21 04:57:56;;;;;;;47.90;34.23;;;10.70;10.70;;;;;;5074931;28;20168;-79
2021/04/21 05:00:24;;;;;;;47.20;33.63;;;10.70;1.00;;;;;;5072809;28;20636;-82
2021/04/21 05:02:58;;;;;;;57.43;37.37;;;10.80;1.00;;;;;;5073097;28;20267;-79
2021/04/21 05:05:26;;;;;;;51.43;36.53;;;10.80;1.00;;;;;;5073141;28;20171;-79
2021/04/21 05:08:02;;;;;;;50.33;35.13;;;10.70;1.00;;;;;;5074639;28;20629;-80
2021/04/21 05:10:29;;;;;;;43.00;31.37;;;10.70;1.00;;;;;;5072692;28;20584;-81
2021/04/21 05:13:02;;;;;;;44.20;32.43;;;10.80;1.00;;;;;;5073434;28;20172;-79
2021/04/21 05:15:37;;;;;;;47.40;34.53;;;10.80;1.00;;;;;;5073187;28;20192;-80
2021/04/21 05:18:18;;;;;;;44.30;33.37;;;10.70;1.00;;;;;;5072099;28;20180;-81
2021/04/21 05:21:11;;;;;;;45.83;32.53;;;10.70;1.00;;;;;;5074503;28;20172;-81
2021/04/21 05:24:23;;;;;;;53.23;35.03;;;10.70;1.00;;;;;;5074344;28;20199;-83
2021/04/21 05:27:14;;;;;;;45.13;33.33;;;10.80;1.00;;;;;;5072620;28;20580;-82
2021/04/21 05:29:58;;;;;;;44.40;31.57;;;10.90;1.00;;;;;;5074078;28;20212;-81
2021/04/21 05:33:22;;;;;;;47.20;32.30;;;10.90;1.00;;;;;;5073021;28;20196;-82
2021/04/21 05:36:15;;;;;;;46.13;31.20;;;10.90;1.00;;;;;;5071717;28;20253;-80
2021/04/21 05:39:09;;;;;;;45.07;29.57;;;11.00;1.00;;;;;;5071840;28;20165;-82
2021/04/21 05:41:46;;;;;;;47.63;30.47;;;10.90;1.00;;;;;;5073593;28;20176;-81
2021/04/21 05:44:30;;;;;;;49.87;32.77;;;11.00;1.00;;;;;;5071006;28;20164;-80
2021/04/21 05:47:35;;;;;;;42.07;30.10;;;10.90;1.00;;;;;;5072869;28;20244;-80
2021/04/21 05:50:19;;;;;;;46.10;30.77;;;10.80;1.00;;;;;;5040524;28;20676;-81
2021/04/21 05:53:08;;;;;;;42.40;30.77;;;10.90;1.00;;;;;;5063958;28;20591;-78
2021/04/21 05:55:36;;;;;;;46.03;31.50;;;10.90;1.00;;;;;;5064156;28;20168;-79
2021/04/21 05:58:18;;;;;;;41.73;30.57;;;11.00;1.00;;;;;;5073046;28;20255;-79
2021/04/21 06:01:02;;;;;;;49.33;32.13;;;11.00;1.00;;;;;;5073388;28;20176;-83
2021/04/21 06:03:31;;;;;;;47.10;31.87;;;11.20;1.00;;;;;;5073599;28;20160;-82
2021/04/21 06:06:04;;;;;;;41.87;31.30;;;11.20;1.00;;;;;;5072224;28;20168;-82
2021/04/21 06:08:31;;;;;;;44.27;29.50;;;11.30;1.00;;;;;;5073224;28;20165;-81
2021/04/21 06:10:57;;;;;;;45.27;30.33;;;11.40;1.00;;;;;;5071783;28;20620;-79
2021/04/21 06:13:33;;;;;;;44.23;31.00;;;11.50;1.00;;;;;;5071128;28;20179;-84
2021/04/21 06:16:00;;;;;;;45.43;29.57;;;11.50;1.00;;;;;;5072975;28;20175;-80
2021/04/21 06:18:26;;;;;;;41.83;29.00;;;11.50;1.00;;;;;;5072979;28;20501;-80
2021/04/21 06:20:52;;;;;;;40.87;27.83;;;11.60;1.00;;;;;;5072920;28;20251;-80
2021/04/21 06:23:23;;;;;;;43.50;30.17;;;11.50;1.00;;;;;;5072610;28;20172;-83
2021/04/21 06:26:03;;;;;;;41.53;28.47;;;11.50;1.00;;;;;;5072545;28;20214;-80
2021/04/21 06:28:29;;;;;;;44.27;28.37;;;11.60;1.00;;;;;;5072644;28;20184;-81
2021/04/21 06:31:13;;;;;;;40.27;27.67;;;11.60;1.00;;;;;;5069276;28;20756;-80
2021/04/21 06:33:43;;;;;;;39.77;27.97;;;11.70;1.00;;;;;;5071635;28;20176;-83
2021/04/21 06:36:14;;;;;;;38.40;26.50;;;11.70;1.00;;;;;;5070088;28;20628;-79
2021/04/21 06:38:41;;;;;;;40.53;27.90;;;11.70;1.00;;;;;;5069639;28;20168;-80
2021/04/21 06:41:07;;;;;;;40.47;29.27;;;11.70;1.00;;;;;;5072154;28;20184;-80
2021/04/21 06:43:34;;;;;;;43.10;28.77;;;11.60;1.00;;;;;;5072508;28;20251;-79
2021/04/21 06:46:01;;;;;;;39.30;27.53;;;11.60;1.00;;;;;;5072605;28;20183;-80
2021/04/21 06:48:33;;;;;;;42.43;28.23;;;11.70;1.00;;;;;;5060012;28;20176;-83
2021/04/21 06:51:15;;;;;;;37.90;26.97;;;11.90;1.00;;;;;;5052255;28;20243;-78
2021/04/21 06:53:43;;;;;;;39.07;27.33;;;11.90;1.00;;;;;;5052359;28;20220;-80
2021/04/21 06:56:09;;;;;;;36.23;26.20;;;11.90;1.00;;;;;;5068838;28;20170;-80
2021/04/21 06:58:37;;;;;;;38.50;27.30;;;11.90;1.00;;;;;;5072498;28;20632;-79
2021/04/21 07:01:14;;;;;;;39.70;27.00;;;12.10;1.00;;;;;;5072678;28;20691;-77
2021/04/21 07:03:41;;;;;;;40.53;27.53;;;12.10;1.00;;;;;;5072761;28;20160;-81
2021/04/21 07:06:07;;;;;;;36.37;27.50;;;12.10;1.00;;;;;;5072012;28;20211;-79
2021/04/21 07:08:36;;;;;;;39.53;26.17;;;12.10;1.00;;;;;;5072468;28;20583;-80
2021/04/21 07:11:03;;;;;;;34.40;25.87;;;12.30;1.00;;;;;;5070615;28;20543;-83
2021/04/21 07:13:40;;;;;;;37.40;27.10;;;12.40;1.00;;;;;;5072500;28;20167;-80
2021/04/21 07:16:09;;;;;;;36.43;26.10;;;12.40;1.00;;;;;;5071957;28;20178;-79
2021/04/21 07:18:42;;;;;;;40.47;28.03;;;12.40;1.00;;;;;;5072025;28;20524;-80
2021/04/21 07:21:08;;;;;;;37.87;26.63;;;12.50;1.00;;;;;;5069859;28;20227;-81
2021/04/21 07:23:37;;;;;;;37.73;26.43;;;12.50;1.00;;;;;;5070895;28;20218;-80
2021/04/21 07:26:03;;;;;;;37.73;27.80;;;12.40;1.00;;;;;;5080410;28;20546;-78
2021/04/21 07:28:29;;;;;;;42.00;27.93;;;12.60;1.00;;;;;;5092088;28;20548;-78
2021/04/21 07:30:56;;;;;;;37.77;26.33;;;12.60;1.00;;;;;;5077793;28;20208;-81
2021/04/21 07:33:44;;;;;;;41.23;27.57;;;12.90;99.90;;;;;;5074379;28;20247;-83
2021/04/21 07:36:23;;;;;;;33.53;24.80;;;13.00;99.90;;;;;;5077147;28;20200;-81
2021/04/21 07:38:57;;;;;;;38.90;25.70;;;13.10;1.00;;;;;;5080156;28;20200;-82
2021/04/21 07:41:35;;;;;;;35.93;23.97;;;13.00;1.00;;;;;;5095179;28;20211;-84
2021/04/21 07:44:01;;;;;;;31.93;22.83;;;13.10;99.90;;;;;;5092905;28;20766;-83
2021/04/21 07:46:29;;;;;;;34.30;21.37;;;13.10;1.00;;;;;;5093110;28;20179;-84
2021/04/21 07:48:55;;;;;;;29.70;21.13;;;13.10;1.00;;;;;;5077801;28;20716;-81
2021/04/21 07:51:21;;;;;;;29.00;20.60;;;13.20;99.90;;;;;;5075446;28;20633;-80
2021/04/21 07:53:50;;;;;;;29.87;20.97;;;13.20;1.00;;;;;;5076516;28;20176;-80
2021/04/21 07:56:18;;;;;;;28.70;20.50;;;13.20;1.00;;;;;;5075629;28;20172;-82
2021/04/21 07:58:44;;;;;;;31.30;18.87;;;13.20;1.00;;;;;;5077210;28;20172;-83
2021/04/21 08:01:09;;;;;;;28.97;19.50;;;13.10;1.00;;;;;;5077914;28;20268;-81
2021/04/21 08:03:36;;;;;;;29.20;19.33;;;13.20;99.90;;;;;;5076629;28;20269;-81
2021/04/21 08:06:02;;;;;;;27.47;19.07;;;13.40;1.00;;;;;;5078222;28;20176;-80
2021/04/21 08:08:33;;;;;;;27.60;20.13;;;13.40;1.00;;;;;;5081000;28;20168;-84
2021/04/21 08:11:00;;;;;;;37.00;20.33;;;13.50;1.00;;;;;;5081619;28;20176;-79
2021/04/21 08:13:39;;;;;;;28.93;19.43;;;13.50;1.00;;;;;;5081116;28;20164;-81
2021/04/21 08:16:05;;;;;;;28.57;20.60;;;13.50;1.00;;;;;;5081390;28;20164;-80
2021/04/21 08:18:32;;;;;;;30.53;21.77;;;13.50;99.90;;;;;;5080325;28;20251;-80
2021/04/21 08:20:58;;;;;;;29.00;21.00;;;13.70;1.00;;;;;;5079819;28;20172;-81
2021/04/21 08:23:24;;;;;;;33.43;22.53;;;13.80;1.00;;;;;;5080100;28;20682;-79
2021/04/21 08:25:51;;;;;;;33.97;22.63;;;13.90;37.40;;;;;;5080553;28;20175;-83
2021/04/21 08:28:19;;;;;;;33.60;23.97;;;14.00;99.90;;;;;;5082265;28;20184;-83
2021/04/21 08:30:58;;;;;;;35.93;23.53;;;14.20;1.00;;;;;;5081476;28;20212;-80
2021/04/21 08:33:24;;;;;;;34.90;23.33;;;14.20;30.30;;;;;;5079655;28;20636;-87
2021/04/21 08:35:49;;;;;;;31.90;23.70;;;14.10;99.90;;;;;;5078101;28;20293;-86
2021/04/21 08:38:16;;;;;;;33.10;23.70;;;14.00;35.10;;;;;;5078057;28;20172;-84
2021/04/21 08:40:41;;;;;;;34.70;24.20;;;14.00;1.00;;;;;;5078081;28;20164;-79
2021/04/21 08:43:08;;;;;;;29.70;21.83;;;14.20;27.80;;;;;;5076322;28;20168;-80
2021/04/21 08:45:35;;;;;;;29.10;21.37;;;14.20;99.90;;;;;;5078508;28;20633;-82
2021/04/21 08:48:03;;;;;;;31.83;22.30;;;14.20;74.60;;;;;;5070095;28;20166;-81
2021/04/21 08:50:34;;;;;;;28.03;19.97;;;14.10;99.90;;;;;;5059969;28;20213;-85
2021/04/21 08:53:05;;;;;;;31.93;23.20;;;14.00;99.90;;;;;;5060224;28;20165;-82
2021/04/21 08:55:32;;;;;;;31.13;22.20;;;14.00;99.90;;;;;;5070141;28;20213;-79
2021/04/21 08:57:59;;;;;;;34.60;23.47;;;14.00;99.90;;;;;;5078299;28;20644;-81
2021/04/21 09:00:25;;;;;;;36.87;25.27;;;14.00;1.00;;;;;;5078264;28;20264;-79
2021/04/21 09:02:51;;;;;;;33.17;25.13;;;14.10;99.90;;;;;;5075933;28;20257;-79
2021/04/21 09:05:19;;;;;;;33.70;23.87;;;14.20;99.90;;;;;;5079857;28;20250;-80
2021/04/21 09:07:44;;;;;;;34.67;25.97;;;14.30;99.90;;;;;;5080170;28;20237;-80
2021/04/21 09:10:11;;;;;;;40.10;23.80;;;14.40;99.90;;;;;;5078531;28;20204;-89
2021/04/21 09:12:37;;;;;;;32.70;24.67;;;14.50;99.90;;;;;;5080870;28;20161;-82
2021/04/21 09:15:05;;;;;;;30.20;24.13;;;14.70;99.90;;;;;;5077560;28;20251;-81
2021/04/21 09:17:31;;;;;;;29.73;22.37;;;14.80;1.00;;;;;;5077762;28;20160;-82
2021/04/21 09:19:59;;;;;;;29.03;21.83;;;14.80;99.90;;;;;;5077620;28;20173;-86
2021/04/21 09:22:25;;;;;;;30.53;22.07;;;14.90;99.90;;;;;;5074094;28;20161;-83
2021/04/21 09:24:58;;;;;;;32.30;22.10;;;15.00;99.90;;;;;;5074091;28;20195;-82
2021/04/21 09:27:34;;;;;;;22.87;16.70;;;15.10;1.00;;;;;;5074534;28;20166;-80
2021/04/21 09:30:14;;;;;;;22.70;15.73;;;15.00;1.00;;;;;;5073223;28;20703;-82
2021/04/21 09:32:59;;;;;;;24.40;15.67;;;15.00;1.00;;;;;;5063869;28;20656;-83
2021/04/21 09:35:30;;;;;;;19.87;14.30;;;15.00;1.00;;;;;;5069446;28;20164;-79
2021/04/21 09:38:03;;;;;;;21.17;14.93;;;15.00;99.90;;;;;;5074445;28;20260;-77
2021/04/21 09:40:49;;;;;;;23.13;14.43;;;14.90;1.00;;;;;;5054510;28;20181;-82
2021/04/21 09:43:20;;;;;;;23.20;15.37;;;14.80;1.00;;;;;;5053498;28;20172;-84
2021/04/21 09:45:54;;;;;;;24.07;15.37;;;14.70;1.00;;;;;;5053652;28;20164;-79
2021/04/21 09:48:40;;;;;;;23.20;14.57;;;14.80;1.00;;;;;;5067382;28;20167;-76
2021/04/21 09:51:11;;;;;;;28.47;15.83;;;14.90;1.00;;;;;;5069079;28;20640;-79
2021/04/21 09:53:38;;;;;;;21.40;16.73;;;15.00;1.00;;;;;;5069350;28;20283;-80
2021/04/21 09:56:06;;;;;;;22.47;15.93;;;15.00;92.50;;;;;;5085558;28;20172;-80
2021/04/21 09:58:49;;;;;;;19.40;16.03;;;15.10;1.00;;;;;;5070744;28;20176;-77
2021/04/21 10:01:28;;;;;;;28.03;17.73;;;15.20;1.00;;;;;;5057819;28;20264;-81
2021/04/21 10:04:11;;;;;;;24.20;17.57;;;15.40;1.00;;;;;;5064305;28;20197;-78
2021/04/21 10:06:49;;;;;;;22.50;16.07;;;15.50;99.90;;;;;;5068227;28;20630;-77
2021/04/21 10:09:33;;;;;;;24.00;18.43;;;15.50;99.90;;;;;;5071721;28;20199;-77
2021/04/21 10:12:18;;;;;;;23.63;18.33;;;15.30;1.00;;;;;;5071879;28;20935;-82
2021/04/21 10:15:00;;;;;;;29.20;18.53;;;15.40;35.80;;;;;;5056168;28;20708;-85
2021/04/21 10:17:30;;;;;;;23.67;18.33;;;15.40;1.00;;;;;;5058718;28;20182;-81
2021/04/21 10:19:58;;;;;;;25.43;18.43;;;15.60;1.00;;;;;;5070145;28;20695;-79
2021/04/21 10:22:24;;;;;;;30.07;19.70;;;15.50;1.00;;;;;;5062383;28;20172;-85
2021/04/21 10:24:51;;;;;;;23.33;18.17;;;15.50;1.00;;;;;;5062487;28;20507;-83
2021/04/21 10:27:16;;;;;;;23.03;17.30;;;15.70;1.00;;;;;;5057066;28;20194;-80
2021/04/21 10:29:43;;;;;;;27.07;19.17;;;15.90;1.00;;;;;;5066210;28;20263;-80
2021/04/21 10:32:11;;;;;;;24.40;18.40;;;16.00;1.00;;;;;;5060534;28;20630;-76
2021/04/21 10:34:37;;;;;;;25.47;18.13;;;16.20;99.90;;;;;;5074401;28;20177;-81
2021/04/21 10:37:03;;;;;;;25.10;18.20;;;16.00;99.90;;;;;;5071738;28;20168;-78
2021/04/21 10:39:32;;;;;;;26.77;17.10;;;16.00;99.90;;;;;;5072328;28;20204;-80
2021/04/21 10:42:07;;;;;;;22.10;16.80;;;15.70;1.00;;;;;;5076166;28;20182;-83
2021/04/21 10:44:33;;;;;;;23.00;17.13;;;15.70;99.90;;;;;;5068185;28;20516;-81
2021/04/21 10:47:01;;;;;;;24.40;17.47;;;16.00;36.70;;;;;;5073137;28;20175;-79
2021/04/21 10:49:42;;;;;;;24.27;17.80;;;16.00;1.00;;;;;;5072266;28;20192;-80
2021/04/21 10:52:09;;;;;;;25.27;17.40;;;16.10;1.00;;;;;;5070226;28;20172;-84
2021/04/21 10:54:35;;;;;;;24.70;17.33;;;16.20;1.00;;;;;;5074112;28;20165;-83
2021/04/21 10:57:22;;;;;;;24.90;17.43;;;16.10;1.00;;;;;;5063089;28;20184;-85
2021/04/21 11:00:18;;;;;;;23.77;17.67;;;16.20;1.00;;;;;;5077291;28;20203;-85
2021/04/21 11:02:47;;;;;;;26.77;18.80;;;16.20;1.00;;;;;;5057494;28;20179;-82
2021/04/21 11:05:16;;;;;;;25.03;19.47;;;16.00;4.30;;;;;;5070851;28;20169;-80
2021/04/21 11:07:44;;;;;;;24.33;20.73;;;16.10;1.00;;;;;;5071301;28;20176;-77
2021/04/21 11:10:35;;;;;;;25.00;20.40;;;16.30;1.00;;;;;;5057025;28;20262;-78
2021/04/21 11:13:01;;;;;;;33.47;21.63;;;16.10;1.00;;;;;;5067643;28;20196;-76
2021/04/21 11:15:33;;;;;;;26.77;20.53;;;16.10;1.00;;;;;;5070402;28;20187;-82
2021/04/21 11:18:08;;;;;;;25.43;20.83;;;16.10;1.00;;;;;;5067352;28;20168;-83
2021/04/21 11:20:46;;;;;;;28.07;22.07;;;16.10;1.00;;;;;;5068843;28;20678;-82
2021/04/21 11:26:24;;;;;;;30.77;24.23;;;16.30;17.30;;;;;;5069871;28;20170;-77
2021/04/21 11:29:14;;;;;;;32.00;23.27;;;16.30;1.00;;;;;;5071542;28;20183;-80
2021/04/21 11:34:32;;;;;;;37.53;25.27;;;16.30;1.00;;;;;;5071238;28;20177;-81
2021/04/21 11:37:12;;;;;;;27.73;22.17;;;16.50;1.00;;;;;;5087508;28;20204;-76
2021/04/21 11:39:44;;;;;;;28.40;23.67;;;16.50;1.00;;;;;;5078302;28;20172;-82
2021/04/21 11:42:31;;;;;;;34.40;25.10;;;16.40;99.90;;;;;;5074240;28;20166;-87
2021/04/21 11:45:30;;;;;;;31.43;24.67;;;16.30;99.90;;;;;;5076403;28;20171;-81
2021/04/21 11:48:05;;;;;;;28.53;22.47;;;16.40;99.90;;;;;;5075109;28;20525;-83
2021/04/21 11:50:41;;;;;;;27.40;23.13;;;16.50;99.90;;;;;;5075298;28;20668;-83
2021/04/21 11:53:07;;;;;;;29.27;23.50;;;16.60;99.90;;;;;;5075785;28;20167;-83
2021/04/21 11:55:56;;;;;;;30.37;23.70;;;16.70;99.90;;;;;;5075933;28;20248;-82
2021/04/21 11:58:33;;;;;;;27.20;23.10;;;16.90;1.00;;;;;;5076582;28;20169;-80
2021/04/21 12:01:07;;;;;;;25.97;22.33;;;17.00;1.00;;;;;;5076378;28;20581;-78
2021/04/21 12:03:34;;;;;;;27.47;20.90;;;16.90;99.90;;;;;;5075918;28;20229;-78
2021/04/21 12:06:08;;;;;;;28.10;23.43;;;16.80;65.30;;;;;;5076395;28;20237;-85
2021/04/21 12:08:38;;;;;;;27.33;22.53;;;16.60;99.90;;;;;;5076494;28;20157;-85
2021/04/21 12:11:05;;;;;;;29.60;22.10;;;16.60;99.90;;;;;;5077181;28;20258;-84
2021/04/21 12:13:44;;;;;;;31.80;23.40;;;16.50;99.90;;;;;;5078474;28;20174;-82
2021/04/21 12:16:22;;;;;;;28.47;23.17;;;16.70;99.90;;;;;;5079390;28;20229;-80
2021/04/21 12:18:52;;;;;;;30.53;23.47;;;16.70;99.90;;;;;;5078313;28;20172;-84
2021/04/21 12:21:18;;;;;;;30.47;25.17;;;16.50;99.90;;;;;;5078546;28;20169;-82
2021/04/21 12:23:46;;;;;;;28.80;25.07;;;16.40;1.00;;;;;;5078425;28;20173;-89
2021/04/21 12:26:19;;;;;;;29.57;24.57;;;16.40;1.00;;;;;;5078300;28;20169;-84
2021/04/21 12:28:46;;;;;;;28.93;24.60;;;16.40;99.90;;;;;;5076084;28;20191;-81
2021/04/21 12:31:12;;;;;;;29.77;25.07;;;16.40;99.90;;;;;;5067375;28;20208;-75
2021/04/21 12:33:39;;;;;;;29.70;23.93;;;16.40;1.00;;;;;;5058223;28;20165;-80
2021/04/21 12:36:06;;;;;;;27.27;23.67;;;16.40;1.00;;;;;;5076126;28;20627;-79
2021/04/21 12:38:35;;;;;;;27.63;24.63;;;16.20;99.90;;;;;;5070495;28;20169;-78
2021/04/21 12:41:04;;;;;;;30.30;25.20;;;16.10;99.90;;;;;;5056282;28;20237;-78
2021/04/21 12:43:34;;;;;;;31.10;27.70;;;16.20;99.90;;;;;;5056484;28;20529;-89
2021/04/21 12:46:15;;;;;;;29.53;26.43;;;16.40;99.90;;;;;;5056608;28;20256;-80
2021/04/21 12:48:53;;;;;;;28.67;23.73;;;16.60;99.90;;;;;;5073828;28;20195;-81
2021/04/21 12:51:45;;;;;;;25.77;22.97;;;16.70;90.10;;;;;;5075580;28;20204;-83
2021/04/21 12:54:37;;;;;;;25.40;21.07;;;16.60;13.70;;;;;;5075615;28;20164;-85
2021/04/21 12:57:05;;;;;;;23.90;21.17;;;16.60;1.00;;;;;;5074152;28;20176;-80
2021/04/21 12:59:50;;;;;;;24.10;21.53;;;16.70;1.00;;;;;;5055017;28;20643;-85
2021/04/21 13:02:35;;;;;;;26.63;21.43;;;16.80;1.00;;;;;;5070586;28;20241;-87
2021/04/21 13:05:01;;;;;;;23.87;20.60;;;17.00;1.00;;;;;;5075547;28;20186;-87
2021/04/21 13:07:27;;;;;;;23.87;20.03;;;17.20;1.00;;;;;;5073999;28;20172;-81
2021/04/21 13:10:05;;;;;;;23.30;20.90;;;17.20;1.00;;;;;;5071875;28;20215;-85